Hlavní strana
METAR-TAF:

METAR-TAF

Letiště :

Utti, Finsko

zeměpisná šířka: 60-54N, zeměpisná délka: 026-56E, výška: 100 m

Aktuální stav počasí

Zpráva byla vytvořena před 26 minutami, v 00:50 UTC
Západní vítr 5 kt
Teplota 9°C
Vlhkost vzduchu 81%
Tlak 1013 hPa
Viditelnost 10 km a více
Žádná oblačnost pod 1500 m, nevyskytují se cumulonimby.

METAR: EFUT 220050Z AUTO 27005KT CAVOK 09/06 Q1013

Čas: 04:16 (01:16 UTC)

Předpověď počasí

Zpráva byla vytvořena před 1 hodinou a 51 minutami, v 23:25 UTC
Předpověď platná od 22 v 00 UTC do 22 v 09 UTC
Západoseverozápadní vítr 8 kt
Viditelnost 10 km a více
Žádná oblačnost pod 1500 m, nevyskytují se cumulonimby.
Dočasný
od 22 v 06 UTC do 22 v 09 UTC
Západoseverozápadní vítr 10 kt s nárazy do 20 kt

TAF: EFUT 212325Z 2200/2209 29008KT CAVOK TEMPO 2206/2209 29010G20KT

Stav a předpovědi počasí z více než 4 000 letišť (zprávy METAR a TAF).

Červené a žluté tečky na mapě představují dostupné meteorologické stanice.

Když kurzor umístíte na tečku, zobrazí se název stanice.

Pak kliknutím zobrazíte stav a předpověď počasí.

Chcete-li změnit mapu, kliknutím na zelené tlačítko se znaménkem +mapu přiblížíte, kliknutím na zelené tlačítko se znaménkem – mapu oddálíte a kliknutím na zelené šipky přejdete na sousední mapy.


METAR-TAF: